createdAt,value
2018-03-19T00:00:45.612Z,-3.70
2018-03-19T00:03:13.099Z,-3.70
2018-03-19T00:05:40.539Z,-3.70
2018-03-19T00:08:08.007Z,-3.80
2018-03-19T00:10:35.492Z,-3.80
2018-03-19T00:13:03.686Z,-3.90
2018-03-19T00:15:31.134Z,-3.90
2018-03-19T00:17:59.362Z,-3.90
2018-03-19T00:20:26.821Z,-4.00
2018-03-19T00:22:54.275Z,-4.00
2018-03-19T00:25:22.489Z,-4.00
2018-03-19T00:27:50.715Z,-4.00
2018-03-19T00:30:18.164Z,-4.00
2018-03-19T00:32:45.626Z,-4.10
2018-03-19T00:35:13.107Z,-4.10
2018-03-19T00:37:40.567Z,-4.10
2018-03-19T00:40:08.807Z,-4.10
2018-03-19T00:42:36.278Z,-4.20
2018-03-19T00:45:03.760Z,-4.20
2018-03-19T00:47:31.219Z,-4.20
2018-03-19T00:49:58.701Z,-4.20
2018-03-19T00:52:26.907Z,-4.30
2018-03-19T00:54:54.343Z,-4.30
2018-03-19T00:57:22.559Z,-4.30
2018-03-19T00:59:50.098Z,-4.30
2018-03-19T01:02:17.544Z,-4.30
2018-03-19T01:04:45.000Z,-4.30
2018-03-19T01:07:12.469Z,-4.30
2018-03-19T01:09:39.914Z,-4.30
2018-03-19T01:12:07.374Z,-4.40
2018-03-19T01:14:34.810Z,-4.30
2018-03-19T01:17:03.107Z,-4.40
2018-03-19T01:19:30.569Z,-4.40
2018-03-19T01:21:58.031Z,-4.40
2018-03-19T01:24:25.478Z,-4.40
2018-03-19T01:26:52.944Z,-4.40
2018-03-19T01:29:20.372Z,-4.40
2018-03-19T01:31:47.810Z,-4.40
2018-03-19T01:34:15.265Z,-4.40
2018-03-19T01:36:42.695Z,-4.40
2018-03-19T01:39:10.165Z,-4.50
2018-03-19T01:41:37.607Z,-4.50
2018-03-19T01:44:05.072Z,-4.50
2018-03-19T01:46:32.603Z,-4.50
2018-03-19T01:49:00.066Z,-4.50
2018-03-19T01:51:27.501Z,-4.50
2018-03-19T01:53:55.021Z,-4.60
2018-03-19T01:56:22.465Z,-4.60
2018-03-19T01:58:49.927Z,-4.60
2018-03-19T02:01:17.382Z,-4.60
2018-03-19T02:03:44.854Z,-4.60
2018-03-19T02:06:12.310Z,-4.60
2018-03-19T02:08:39.766Z,-4.70
2018-03-19T02:11:07.234Z,-4.70
2018-03-19T02:13:34.677Z,-4.70
2018-03-19T02:16:02.596Z,-4.70
2018-03-19T02:18:30.052Z,-4.80
2018-03-19T02:20:57.498Z,-4.80
2018-03-19T02:23:24.950Z,-4.80
2018-03-19T02:25:52.423Z,-4.90
2018-03-19T02:28:19.858Z,-4.90
2018-03-19T02:30:47.315Z,-4.90
2018-03-19T02:33:14.786Z,-4.90
2018-03-19T02:35:42.251Z,-5.00
2018-03-19T02:38:09.724Z,-5.00
2018-03-19T02:40:37.183Z,-5.00
2018-03-19T02:43:04.663Z,-5.00
2018-03-19T02:45:32.135Z,-5.00
2018-03-19T02:47:59.568Z,-5.00
2018-03-19T02:50:27.832Z,-5.10
2018-03-19T02:52:55.305Z,-5.10
2018-03-19T02:55:22.759Z,-5.10
2018-03-19T02:57:50.216Z,-5.10
2018-03-19T03:00:17.660Z,-5.10
2018-03-19T03:02:45.130Z,-5.10
2018-03-19T03:05:12.577Z,-5.20
2018-03-19T03:07:40.055Z,-5.20
2018-03-19T03:10:07.523Z,-5.20
2018-03-19T03:12:34.983Z,-5.30
2018-03-19T03:15:02.430Z,-5.30
2018-03-19T03:17:29.884Z,-5.30
2018-03-19T03:19:57.380Z,-5.30
2018-03-19T03:22:24.865Z,-5.40
2018-03-19T03:24:52.326Z,-5.40
2018-03-19T03:27:19.817Z,-5.40
2018-03-19T03:29:47.283Z,-5.40
2018-03-19T03:32:14.782Z,-5.40
2018-03-19T03:34:42.351Z,-5.40
2018-03-19T03:37:09.856Z,-5.50
2018-03-19T03:39:37.333Z,-5.50
2018-03-19T03:42:04.785Z,-5.50
2018-03-19T03:44:32.282Z,-5.50
2018-03-19T03:46:59.738Z,-5.50
2018-03-19T03:49:27.221Z,-5.60
2018-03-19T03:51:54.682Z,-5.60
2018-03-19T03:54:22.166Z,-5.60
2018-03-19T03:56:49.630Z,-5.60
2018-03-19T03:59:17.127Z,-5.60
2018-03-19T04:01:44.610Z,-5.70
2018-03-19T04:04:12.069Z,-5.60
2018-03-19T04:06:40.309Z,-5.60
2018-03-19T04:09:07.793Z,-5.70
2018-03-19T04:11:35.273Z,-5.70
2018-03-19T04:14:02.742Z,-5.70
2018-03-19T04:16:30.240Z,-5.70
2018-03-19T04:18:57.710Z,-5.70
2018-03-19T04:21:25.204Z,-5.80
2018-03-19T04:23:52.671Z,-5.70
2018-03-19T04:26:20.897Z,-5.80
2018-03-19T04:28:48.389Z,-5.80
2018-03-19T04:31:16.622Z,-5.80
2018-03-19T04:33:44.113Z,-5.80
2018-03-19T04:36:11.598Z,-5.80
2018-03-19T04:38:39.053Z,-5.90
2018-03-19T04:41:06.534Z,-5.80
2018-03-19T04:43:34.788Z,-5.90
2018-03-19T04:46:03.852Z,-5.90
2018-03-19T04:48:31.310Z,-5.90
2018-03-19T04:50:58.774Z,-5.90
2018-03-19T04:53:26.259Z,-5.90
2018-03-19T04:55:53.711Z,-6.00
2018-03-19T04:58:21.190Z,-6.00
2018-03-19T05:00:48.713Z,-6.00
2018-03-19T05:03:16.198Z,-6.00
2018-03-19T05:05:43.691Z,-6.00
2018-03-19T05:08:11.155Z,-6.10
2018-03-19T05:10:38.649Z,-6.10
2018-03-19T05:13:06.153Z,-6.10
2018-03-19T05:15:33.638Z,-6.10
2018-03-19T05:18:01.129Z,-6.20
2018-03-19T05:20:29.404Z,-6.20
2018-03-19T05:22:56.866Z,-6.20
2018-03-19T05:25:24.336Z,-6.20
2018-03-19T05:27:52.610Z,-6.30
2018-03-19T05:30:20.870Z,-6.30
2018-03-19T05:32:48.354Z,-6.30
2018-03-19T05:35:16.612Z,-6.30
2018-03-19T05:37:44.839Z,-6.30
2018-03-19T05:40:12.338Z,-6.30
2018-03-19T05:42:39.799Z,-6.30
2018-03-19T05:45:07.274Z,-6.30
2018-03-19T05:47:35.498Z,-6.30
2018-03-19T05:50:02.990Z,-6.30
2018-03-19T05:52:30.491Z,-6.30
2018-03-19T05:54:57.970Z,-6.30
2018-03-19T05:57:25.462Z,-6.40
2018-03-19T05:59:52.978Z,-6.40
2018-03-19T06:02:20.439Z,-6.30
2018-03-19T06:04:47.907Z,-6.30
2018-03-19T06:07:15.393Z,-6.30
2018-03-19T06:09:42.852Z,-6.30
2018-03-19T06:12:10.410Z,-6.30
2018-03-19T06:14:37.870Z,-6.30
2018-03-19T06:17:06.139Z,-6.20
2018-03-19T06:19:33.590Z,-6.20
2018-03-19T06:22:01.067Z,-6.20
2018-03-19T06:24:28.523Z,-6.20
2018-03-19T06:26:56.064Z,-6.10
2018-03-19T06:29:23.538Z,-6.10
2018-03-19T06:31:51.789Z,-6.00
2018-03-19T06:34:19.311Z,-6.10
2018-03-19T06:36:46.798Z,-6.00
2018-03-19T06:39:14.272Z,-6.00
2018-03-19T06:41:41.759Z,-5.90
2018-03-19T06:44:09.284Z,-5.90
2018-03-19T06:46:36.771Z,-5.80
2018-03-19T06:49:05.007Z,-5.80
2018-03-19T06:51:32.498Z,-5.80
2018-03-19T06:54:00.002Z,-5.70
2018-03-19T06:56:27.459Z,-5.70
2018-03-19T06:58:54.915Z,-5.60
2018-03-19T07:01:22.400Z,-5.60
2018-03-19T07:03:49.882Z,-5.50
2018-03-19T07:06:18.168Z,-5.40
2018-03-19T07:08:45.616Z,-5.40
2018-03-19T07:11:13.862Z,-5.20
2018-03-19T07:13:41.332Z,-5.20
2018-03-19T07:16:08.811Z,-5.20
2018-03-19T07:18:37.059Z,-4.90
2018-03-19T07:21:04.541Z,-4.90
2018-03-19T07:23:32.800Z,-4.70
2018-03-19T07:26:00.287Z,-4.70
2018-03-19T07:28:28.506Z,-4.40
2018-03-19T07:30:55.990Z,-4.40
2018-03-19T07:33:23.493Z,-4.10
2018-03-19T07:35:50.942Z,-3.80
2018-03-19T07:38:18.436Z,-3.40
2018-03-19T07:40:45.882Z,-3.00
2018-03-19T07:43:13.339Z,-2.50
2018-03-19T07:45:40.823Z,-2.10
2018-03-19T07:48:08.302Z,-1.60
2018-03-19T07:50:36.564Z,-0.80
2018-03-19T07:53:04.010Z,-0.80
2018-03-19T07:55:31.497Z,-0.20
2018-03-19T07:57:59.726Z,0.70
2018-03-19T08:00:27.198Z,0.70
2018-03-19T08:02:54.677Z,1.10
2018-03-19T08:05:22.146Z,1.50
2018-03-19T08:07:49.618Z,1.90
2018-03-19T08:10:17.827Z,2.60
2018-03-19T08:12:45.291Z,2.60
2018-03-19T08:15:12.763Z,2.90
2018-03-19T08:17:40.223Z,3.20
2018-03-19T08:20:07.711Z,3.50
2018-03-19T08:22:35.166Z,3.80
2018-03-19T08:25:02.629Z,4.20
2018-03-19T08:27:30.111Z,4.50
2018-03-19T08:29:57.601Z,4.80
2018-03-19T08:32:26.067Z,5.20
2018-03-19T08:34:53.551Z,5.50
2018-03-19T08:37:21.010Z,5.80
2018-03-19T08:39:48.494Z,6.10
2018-03-19T08:42:16.699Z,6.60
2018-03-19T08:44:45.055Z,6.60
2018-03-19T08:47:12.506Z,6.60
2018-03-19T08:49:39.967Z,6.80
2018-03-19T08:52:07.448Z,6.90
2018-03-19T08:54:34.903Z,7.10
2018-03-19T08:57:02.379Z,7.30
2018-03-19T08:59:29.866Z,7.60
2018-03-19T09:01:57.325Z,7.80
2018-03-19T09:04:24.807Z,8.00
2018-03-19T09:06:53.036Z,8.20
2018-03-19T09:09:20.541Z,8.20
2018-03-19T09:11:48.742Z,8.00
2018-03-19T09:14:16.258Z,8.00
2018-03-19T09:16:43.720Z,7.90
2018-03-19T09:19:11.971Z,7.70
2018-03-19T09:21:39.423Z,7.70
2018-03-19T09:24:06.891Z,7.50
2018-03-19T09:26:34.380Z,7.20
2018-03-19T09:29:02.631Z,6.70
2018-03-19T09:31:30.098Z,6.70
2018-03-19T09:33:57.574Z,6.50
2018-03-19T09:36:25.799Z,6.00
2018-03-19T09:38:53.292Z,6.00
2018-03-19T09:41:21.538Z,6.00
2018-03-19T09:43:49.040Z,6.00
2018-03-19T09:46:16.523Z,6.20
2018-03-19T09:48:43.979Z,6.60
2018-03-19T09:51:17.010Z,7.00
2018-03-19T09:53:44.471Z,7.30
2018-03-19T09:56:11.945Z,7.60
2018-03-19T09:58:39.422Z,7.50
2018-03-19T10:01:06.894Z,7.20
2018-03-19T10:03:34.359Z,6.80
2018-03-19T10:06:02.685Z,6.40
2018-03-19T10:08:30.539Z,5.90
2018-03-19T10:10:58.182Z,5.40
2018-03-19T10:13:25.712Z,5.10
2018-03-19T10:15:53.910Z,4.50
2018-03-19T10:18:21.450Z,4.50
2018-03-19T10:20:48.944Z,4.30
2018-03-19T10:23:16.464Z,4.10
2018-03-19T10:25:43.938Z,3.90
2018-03-19T10:28:11.418Z,3.80
2018-03-19T10:30:38.898Z,3.70
2018-03-19T10:33:06.388Z,3.80
2018-03-19T10:35:33.967Z,4.00
2018-03-19T10:38:02.222Z,5.50
2018-03-19T10:40:29.684Z,5.50
2018-03-19T10:42:57.134Z,6.40
2018-03-19T10:45:24.642Z,7.20
2018-03-19T10:47:52.165Z,8.00
2018-03-19T10:50:19.721Z,8.60
2018-03-19T10:52:47.173Z,9.30
2018-03-19T10:55:14.682Z,10.00
2018-03-19T10:57:42.208Z,10.50
2018-03-19T11:00:09.685Z,11.00
2018-03-19T11:02:42.831Z,11.30
2018-03-19T11:05:16.038Z,11.40
2018-03-19T11:07:46.199Z,11.90
2018-03-19T11:10:13.668Z,11.90
2018-03-19T11:12:41.154Z,12.40
2018-03-19T11:15:08.626Z,12.80
2018-03-19T11:17:36.122Z,12.70
2018-03-19T11:20:03.650Z,12.80
2018-03-19T11:22:31.102Z,12.80
2018-03-19T11:24:58.570Z,12.90
2018-03-19T11:27:26.822Z,13.00
2018-03-19T11:29:54.282Z,12.90
2018-03-19T11:32:21.766Z,13.10
2018-03-19T11:34:50.066Z,13.30
2018-03-19T11:37:17.561Z,13.30
2018-03-19T11:39:45.047Z,13.70
2018-03-19T11:42:12.538Z,13.90
2018-03-19T11:44:40.011Z,14.00
2018-03-19T11:47:07.503Z,14.10
2018-03-19T11:49:34.938Z,14.20
2018-03-19T11:52:02.415Z,14.30
2018-03-19T11:54:29.905Z,14.60
2018-03-19T11:56:57.387Z,14.90
2018-03-19T11:59:24.846Z,14.90
2018-03-19T12:01:52.376Z,14.90
2018-03-19T12:04:19.865Z,15.10
2018-03-19T12:06:47.363Z,15.30
2018-03-19T12:09:14.878Z,15.70
2018-03-19T12:11:42.349Z,15.90
2018-03-19T12:14:09.813Z,16.20
2018-03-19T12:16:37.309Z,16.60
2018-03-19T12:19:04.783Z,17.00
2018-03-19T12:21:33.096Z,17.20
2018-03-19T12:24:00.571Z,17.20
2018-03-19T12:26:29.075Z,17.50
2018-03-19T12:28:56.578Z,17.60
2018-03-19T12:31:24.807Z,17.30
2018-03-19T12:33:52.289Z,17.30
2018-03-19T12:36:19.802Z,17.00
2018-03-19T12:38:47.300Z,16.90
2018-03-19T12:41:14.768Z,16.90
2018-03-19T12:43:42.279Z,16.90
2018-03-19T12:46:09.757Z,17.20
2018-03-19T12:48:37.214Z,17.30
2018-03-19T12:51:04.739Z,17.30
2018-03-19T12:53:32.182Z,17.30
2018-03-19T12:55:59.665Z,17.50
2018-03-19T12:58:27.174Z,17.40
2018-03-19T13:00:54.635Z,17.30
2018-03-19T13:03:22.115Z,17.50
2018-03-19T13:05:49.637Z,17.80
2018-03-19T13:08:17.109Z,17.70
2018-03-19T13:10:44.611Z,17.80
2018-03-19T13:13:12.114Z,17.90
2018-03-19T13:15:42.486Z,18.10
2018-03-19T13:18:09.942Z,18.40
2018-03-19T13:20:38.200Z,19.00
2018-03-19T13:23:05.718Z,19.00
2018-03-19T13:25:33.236Z,18.90
2018-03-19T13:28:00.705Z,18.70
2018-03-19T13:30:28.927Z,18.60
2018-03-19T13:32:57.274Z,18.60
2018-03-19T13:35:24.771Z,18.80
2018-03-19T13:37:52.226Z,19.00
2018-03-19T13:40:19.705Z,19.20
2018-03-19T13:42:47.227Z,19.30
2018-03-19T13:45:14.750Z,19.40
2018-03-19T13:47:42.260Z,19.60
2018-03-19T13:50:09.738Z,19.70
2018-03-19T13:52:38.224Z,19.70
2018-03-19T13:55:06.559Z,19.60
2018-03-19T13:57:34.078Z,19.60
2018-03-19T14:00:01.547Z,19.60
2018-03-19T14:02:29.072Z,19.50
2018-03-19T14:04:56.554Z,19.30
2018-03-19T14:07:24.043Z,19.00
2018-03-19T14:09:52.337Z,18.40
2018-03-19T14:12:19.846Z,18.40
2018-03-19T14:14:47.301Z,18.10
2018-03-19T14:17:14.826Z,17.40
2018-03-19T14:19:42.271Z,16.40
2018-03-19T14:22:10.494Z,14.10
2018-03-19T14:24:38.006Z,14.00
2018-03-19T14:27:05.493Z,12.80
2018-03-19T14:29:32.991Z,11.70
2018-03-19T14:32:00.453Z,10.70
2018-03-19T14:34:27.943Z,9.80
2018-03-19T14:36:56.167Z,8.50
2018-03-19T14:39:23.689Z,8.50
2018-03-19T14:41:51.899Z,7.80
2018-03-19T14:44:19.437Z,7.70
2018-03-19T14:46:46.888Z,7.40
2018-03-19T14:49:14.372Z,7.10
2018-03-19T14:51:41.889Z,6.80
2018-03-19T14:54:09.457Z,6.50
2018-03-19T14:56:36.940Z,6.30
2018-03-19T14:59:04.399Z,6.00
2018-03-19T15:01:31.861Z,5.80
2018-03-19T15:03:59.342Z,5.50
2018-03-19T15:06:26.830Z,5.30
2018-03-19T15:08:54.315Z,5.20
2018-03-19T15:11:21.787Z,5.00
2018-03-19T15:13:49.284Z,4.90
2018-03-19T15:16:16.754Z,4.70
2018-03-19T15:18:44.240Z,4.70
2018-03-19T15:21:12.466Z,4.50
2018-03-19T15:23:40.138Z,4.40
2018-03-19T15:26:07.606Z,4.40
2018-03-19T15:28:35.118Z,4.30
2018-03-19T15:31:02.573Z,4.30
2018-03-19T15:33:30.039Z,4.20
2018-03-19T15:35:57.542Z,4.20
2018-03-19T15:38:24.999Z,4.10
2018-03-19T15:40:52.487Z,4.10
2018-03-19T15:43:19.966Z,4.00
2018-03-19T15:45:47.419Z,3.90
2018-03-19T15:48:14.909Z,3.90
2018-03-19T15:50:42.378Z,3.80
2018-03-19T15:53:09.887Z,3.80
2018-03-19T15:55:37.387Z,3.70
2018-03-19T15:58:04.858Z,3.70
2018-03-19T16:00:32.330Z,3.70
2018-03-19T16:02:59.878Z,3.60
2018-03-19T16:05:28.119Z,3.60
2018-03-19T16:07:56.343Z,3.50
2018-03-19T16:10:24.596Z,3.50
2018-03-19T16:12:52.199Z,3.50
2018-03-19T16:15:19.690Z,3.50
2018-03-19T16:17:47.170Z,3.40
2018-03-19T16:20:14.668Z,3.40
2018-03-19T16:25:15.954Z,3.30
2018-03-19T16:27:43.405Z,3.30
2018-03-19T16:30:10.906Z,3.20
2018-03-19T16:32:38.382Z,3.10
2018-03-19T16:35:06.606Z,3.10
2018-03-19T16:37:34.091Z,3.10
2018-03-19T16:40:01.566Z,3.10
2018-03-19T16:42:29.055Z,3.00
2018-03-19T16:44:56.503Z,3.00
2018-03-19T16:47:23.991Z,2.90
2018-03-19T16:49:51.465Z,3.00
2018-03-19T16:52:18.969Z,2.90
2018-03-19T16:54:46.446Z,2.90
2018-03-19T16:57:13.923Z,2.90
2018-03-19T16:59:41.445Z,2.80
2018-03-19T17:02:08.939Z,2.80
2018-03-19T17:04:36.414Z,2.80
2018-03-19T17:07:03.948Z,2.70
2018-03-19T17:09:31.382Z,2.70
2018-03-19T17:11:58.842Z,2.70
2018-03-19T17:14:26.331Z,2.60
2018-03-19T17:16:54.583Z,2.40
2018-03-19T17:19:22.034Z,2.40
2018-03-19T17:21:49.495Z,2.30
2018-03-19T17:24:17.020Z,2.20
2018-03-19T17:26:44.507Z,2.10
2018-03-19T17:29:11.994Z,2.00
2018-03-19T17:31:39.481Z,1.80
2018-03-19T17:34:07.066Z,1.70
2018-03-19T17:36:34.554Z,1.60
2018-03-19T17:39:02.047Z,1.50
2018-03-19T17:41:29.535Z,1.30
2018-03-19T17:43:57.006Z,1.20
2018-03-19T17:46:24.477Z,1.10
2018-03-19T17:48:51.958Z,1.00
2018-03-19T17:51:19.432Z,0.90
2018-03-19T17:53:46.952Z,0.80
2018-03-19T17:56:14.448Z,0.70
2018-03-19T17:58:41.943Z,0.60
2018-03-19T18:01:09.455Z,0.50
2018-03-19T18:03:36.911Z,0.50
2018-03-19T18:06:04.396Z,0.50
2018-03-19T18:08:32.643Z,0.50
2018-03-19T18:11:00.102Z,0.50
2018-03-19T18:13:27.589Z,0.60
2018-03-19T18:15:55.810Z,0.50
2018-03-19T18:18:23.376Z,0.60
2018-03-19T18:20:51.538Z,0.50
2018-03-19T18:23:19.026Z,0.50
2018-03-19T18:25:46.582Z,0.40
2018-03-19T18:28:14.073Z,0.30
2018-03-19T18:30:41.572Z,0.30
2018-03-19T18:33:09.058Z,0.20
2018-03-19T18:35:36.534Z,0.10
2018-03-19T18:38:04.758Z,0.00
2018-03-19T18:40:32.275Z,0.00
2018-03-19T18:43:00.502Z,-0.20
2018-03-19T18:45:27.955Z,-0.20
2018-03-19T18:47:55.466Z,-0.30
2018-03-19T18:50:23.687Z,-0.40
2018-03-19T18:52:51.182Z,-0.40
2018-03-19T18:55:18.658Z,-0.50
2018-03-19T18:57:46.878Z,-0.60
2018-03-19T19:00:14.371Z,-0.70
2018-03-19T19:02:41.903Z,-0.70
2018-03-19T19:05:09.342Z,-0.80
2018-03-19T19:07:36.809Z,-0.80
2018-03-19T19:10:04.300Z,-0.90
2018-03-19T19:12:31.778Z,-0.90
2018-03-19T19:15:00.035Z,-1.00
2018-03-19T19:17:27.507Z,-1.00
2018-03-19T19:19:55.842Z,-1.10
2018-03-19T19:22:23.302Z,-1.10
2018-03-19T19:24:50.794Z,-1.20
2018-03-19T19:27:18.310Z,-1.20
2018-03-19T19:29:45.798Z,-1.20
2018-03-19T19:32:13.270Z,-1.30
2018-03-19T19:34:41.535Z,-1.30
2018-03-19T19:37:09.042Z,-1.30
2018-03-19T19:39:36.534Z,-1.30
2018-03-19T19:42:03.990Z,-1.30
2018-03-19T19:44:31.494Z,-1.30
2018-03-19T19:46:58.997Z,-1.30
2018-03-19T19:49:26.443Z,-1.30
2018-03-19T19:51:53.898Z,-1.30
2018-03-19T19:54:21.389Z,-1.20
2018-03-19T19:56:48.880Z,-1.20
2018-03-19T19:59:17.138Z,-1.20
2018-03-19T20:01:45.378Z,-1.20
2018-03-19T20:04:12.877Z,-1.20
2018-03-19T20:06:40.328Z,-1.20
2018-03-19T20:09:08.571Z,-1.10
2018-03-19T20:11:36.073Z,-1.10
2018-03-19T20:14:03.540Z,-1.10
2018-03-19T20:16:31.047Z,-1.10
2018-03-19T20:18:58.547Z,-1.10
2018-03-19T20:21:26.041Z,-1.00
2018-03-19T20:23:53.555Z,-1.00
2018-03-19T20:26:21.019Z,-0.90
2018-03-19T20:28:49.243Z,-0.80
2018-03-19T20:31:17.471Z,-0.70
2018-03-19T20:33:44.963Z,-0.70
2018-03-19T20:36:12.426Z,-0.60
2018-03-19T20:38:39.927Z,-0.50
2018-03-19T20:41:07.391Z,-0.50
2018-03-19T20:43:35.610Z,-0.30
2018-03-19T20:46:03.893Z,-0.30
2018-03-19T20:48:31.347Z,-0.30
2018-03-19T20:50:58.807Z,-0.20
2018-03-19T20:53:26.274Z,-0.20
2018-03-19T20:55:53.746Z,-0.10
2018-03-19T20:58:21.255Z,-0.10
2018-03-19T21:00:49.618Z,0.00
2018-03-19T21:03:17.090Z,0.00
2018-03-19T21:05:44.571Z,0.00
2018-03-19T21:08:12.027Z,0.10
2018-03-19T21:10:39.500Z,0.10
2018-03-19T21:13:06.987Z,0.10
2018-03-19T21:15:34.451Z,0.20
2018-03-19T21:18:02.708Z,0.20
2018-03-19T21:20:30.150Z,0.20
2018-03-19T21:22:57.658Z,0.20
2018-03-19T21:25:25.857Z,0.20
2018-03-19T21:27:53.443Z,0.10
2018-03-19T21:30:20.815Z,0.20
2018-03-19T21:32:48.263Z,0.20
2018-03-19T21:35:15.749Z,0.20
2018-03-19T21:37:43.212Z,0.20
2018-03-19T21:40:11.461Z,0.10
2018-03-19T21:42:38.905Z,0.10
2018-03-19T21:45:06.389Z,0.10
2018-03-19T21:47:33.866Z,0.10
2018-03-19T21:50:01.346Z,0.10
2018-03-19T21:52:28.846Z,0.10
2018-03-19T21:54:56.326Z,0.10
2018-03-19T21:57:24.558Z,0.10
2018-03-19T21:59:52.035Z,0.00
2018-03-19T22:02:19.558Z,0.00
2018-03-19T22:04:47.006Z,0.10
2018-03-19T22:07:14.490Z,0.00
2018-03-19T22:09:41.949Z,0.00
2018-03-19T22:12:09.422Z,0.00
2018-03-19T22:14:36.924Z,0.00
2018-03-19T22:17:04.393Z,0.00
2018-03-19T22:19:31.874Z,0.00
2018-03-19T22:21:59.331Z,0.00
2018-03-19T22:24:26.811Z,0.00
2018-03-19T22:26:54.282Z,0.00
2018-03-19T22:29:21.735Z,0.00
2018-03-19T22:31:49.238Z,0.00
2018-03-19T22:34:16.707Z,0.00
2018-03-19T22:36:44.179Z,0.00
2018-03-19T22:39:11.650Z,0.00
2018-03-19T22:41:39.107Z,0.00
2018-03-19T22:44:06.586Z,0.00
2018-03-19T22:46:34.038Z,0.00
2018-03-19T22:49:01.532Z,0.00
2018-03-19T22:51:28.980Z,0.00
2018-03-19T22:53:56.443Z,0.00
2018-03-19T22:56:23.914Z,0.00
2018-03-19T22:58:51.370Z,0.00
2018-03-19T23:01:18.867Z,0.00
2018-03-19T23:03:46.330Z,0.00
2018-03-19T23:06:13.849Z,-0.10
2018-03-19T23:08:41.392Z,0.00
2018-03-19T23:11:08.789Z,0.00
2018-03-19T23:13:36.267Z,-0.10
2018-03-19T23:16:03.744Z,0.00
2018-03-19T23:18:32.006Z,-0.10
2018-03-19T23:21:00.227Z,0.00
2018-03-19T23:23:27.687Z,-0.10
2018-03-19T23:25:55.186Z,0.00
2018-03-19T23:28:22.647Z,0.00
2018-03-19T23:30:50.109Z,-0.10
2018-03-19T23:33:17.606Z,0.00
2018-03-19T23:35:45.098Z,0.00
2018-03-19T23:38:12.550Z,0.00
2018-03-19T23:40:40.786Z,0.00
2018-03-19T23:43:08.275Z,0.00
2018-03-19T23:45:35.726Z,0.00
2018-03-19T23:48:03.221Z,0.00
2018-03-19T23:50:30.678Z,0.00
2018-03-19T23:52:58.133Z,0.00
2018-03-19T23:55:25.632Z,0.00
2018-03-19T23:57:53.113Z,0.00
